Rechercher aéroport 
image banner adimage banner adimage banner ad
image banner ad

KSTS - Charles M Schulz - Sonoma County

Situé à Santa Rosa, United States

ICAO - STS, IATA - STS

Données fournies par Airmate  

Information générale

Coordonnées: N38°30'35" W122°48'46"
Élévation : 129 feet MSL.
Variation magnétique : 16° East
Voir autres Aéroports à California

Données opérationnelles

Special qualification required
Heure actuelle UTC:
Heure actuelle locale:
Météo
METAR: KSTS 262153Z 19008KT 10SM SCT100 18/12 A2992 RMK AO2 SLP126 T01780117
TAF: KSTS 261720Z 2618/2718 VRB04KT P6SM BKN013 FM261830 18010KT P6SM SCT011 FM261900 18009KT P6SM SCT200 FM270500 16007KT P6SM BKN008 FM271530 18010KT P6SM FEW004 SCT200
Voir NOTAMs / SUP AIP / TFR affectant cet aéroport [VIEW]
Fréquences de communication: [VIEW]

Pistes:

Identifiant RWYQFULongueur (ft)Largeur (ft)SurfaceLDA (ft)
14157°6000150ASPH5880
32337°6000150ASPH6000
0229°5202100ASPH4802
20209°5202100ASPH5202

Coordonnées de l'aéroport

Adresse: Santa Rosa United States

Autres services d'aviation

Écoles de pilotage

North Coast Air, Inc.

North Coast Air, Inc.
info@northcoastair.com+1(707)542-8687

Ram Aviation

Ram Aviation
rob@ramaviation.com+1(707)479-5969

Aircraft Simulator Training

Aircraft Simulator Training

Vue satellite de KSTS